Terminal Aerodrome Forecast
Issued by NWS

Home | Current Version | Previous Version | Text Only | Print | Product List | Glossary On
Versions: 1 2 3 4 5 6 7 8 9 10 11 12 13 14 15 16 17 18 19 20 21 22 23 24 25 26 27 28 29 30 31 32 33 34 35 36 37 38 39 40 41 42 43 44
000
FTUS45 KBOU 180212 AAC
TAFAPA
TAF AMD
KAPA 180212Z 1802/1824 01009KT P6SM SCT110 BKN150
     FM180230 28008KT P6SM SCT110 BKN180
     FM180300 VRB06KT P6SM FEW090 BKN150
     FM180400 18007KT P6SM FEW120 SCT200
     FM180600 19011KT P6SM SCT200
     FM182100 17012G19KT P6SM FEW110 SCT200=

USA.gov is the U.S. government's official web portal to all federal, state and local government web resources and services.